createdAt,value
2023-04-07T00:03:34.406Z,2.87
2023-04-07T00:10:16.910Z,2.86
2023-04-07T00:16:59.111Z,2.85
2023-04-07T00:23:42.916Z,2.84
2023-04-07T00:30:25.415Z,2.83
2023-04-07T00:37:07.691Z,2.82
2023-04-07T00:43:52.008Z,2.83
2023-04-07T00:50:34.532Z,2.84
2023-04-07T00:57:16.760Z,2.83
2023-04-07T01:04:04.458Z,2.84
2023-04-07T01:11:32.988Z,2.85
2023-04-07T01:18:22.285Z,2.86
2023-04-07T01:25:35.593Z,2.89
2023-04-07T01:32:22.783Z,2.91
2023-04-07T01:39:07.299Z,2.93
2023-04-07T01:45:51.212Z,2.94
2023-04-07T01:52:36.812Z,2.96
2023-04-07T01:59:19.604Z,2.98
2023-04-07T02:06:09.526Z,2.99
2023-04-07T02:12:52.745Z,2.99
2023-04-07T02:19:36.838Z,3.01
2023-04-07T02:26:19.742Z,3.03
2023-04-07T02:33:02.356Z,3.07
2023-04-07T02:39:44.575Z,3.07
2023-04-07T02:46:26.967Z,3.09
2023-04-07T03:00:50.970Z,3.12
2023-04-07T03:07:39.594Z,3.13
2023-04-07T03:14:23.873Z,3.17
2023-04-07T03:21:06.487Z,3.18
2023-04-07T03:27:48.812Z,3.18
2023-04-07T03:34:31.291Z,3.19
2023-04-07T03:41:14.756Z,3.19
2023-04-07T03:47:57.376Z,3.20
2023-04-07T03:54:42.849Z,3.20
2023-04-07T04:01:25.963Z,3.22
2023-04-07T04:08:09.878Z,3.23
2023-04-07T04:14:54.744Z,3.25
2023-04-07T04:21:37.592Z,3.25
2023-04-07T04:28:20.543Z,3.25
2023-04-07T04:35:02.812Z,3.28
2023-04-07T04:41:48.224Z,3.31
2023-04-07T04:48:32.573Z,3.34
2023-04-07T04:55:14.985Z,3.40
2023-04-07T05:01:59.068Z,3.42
2023-04-07T05:08:41.768Z,3.46
2023-04-07T05:15:24.267Z,3.49
2023-04-07T05:22:06.816Z,3.52
2023-04-07T05:28:57.240Z,3.55
2023-04-07T05:35:41.050Z,3.59
2023-04-07T05:42:23.436Z,3.62
2023-04-07T05:49:19.569Z,3.66
2023-04-07T05:56:08.078Z,3.68
2023-04-07T06:02:58.311Z,3.70
2023-04-07T06:09:42.735Z,3.76
2023-04-07T06:16:25.074Z,3.80
2023-04-07T06:23:07.716Z,3.83
2023-04-07T06:29:50.125Z,3.85
2023-04-07T06:36:33.868Z,3.87
2023-04-07T06:43:16.271Z,3.88
2023-04-07T06:50:06.849Z,3.91
2023-04-07T06:56:49.115Z,3.96
2023-04-07T07:03:31.937Z,4.05
2023-04-07T07:10:14.439Z,4.13
2023-04-07T07:16:56.693Z,4.15
2023-04-07T07:23:38.938Z,4.17
2023-04-07T07:30:23.364Z,4.21
2023-04-07T07:37:05.640Z,4.23
2023-04-07T07:43:48.271Z,4.27
2023-04-07T07:50:31.685Z,4.33
2023-04-07T07:57:14.092Z,4.33
2023-04-07T08:03:56.320Z,4.34
2023-04-07T08:10:38.863Z,4.35
2023-04-07T08:17:21.087Z,4.38
2023-04-07T08:24:03.562Z,4.51
2023-04-07T08:30:45.946Z,4.64
2023-04-07T08:37:28.079Z,4.67
2023-04-07T08:44:11.349Z,4.72
2023-04-07T08:50:54.734Z,4.75
2023-04-07T08:57:37.516Z,4.75
2023-04-07T09:04:20.399Z,4.78
2023-04-07T09:11:03.252Z,4.81
2023-04-07T09:17:45.743Z,4.80
2023-04-07T09:24:32.109Z,4.81
2023-04-07T09:31:14.691Z,4.85
2023-04-07T09:38:10.337Z,4.90
2023-04-07T09:44:52.757Z,4.96
2023-04-07T09:51:35.096Z,5.07
2023-04-07T09:58:18.736Z,5.19
2023-04-07T10:05:01.302Z,5.33
2023-04-07T10:11:44.776Z,5.43
2023-04-07T10:18:33.503Z,5.47
2023-04-07T10:25:21.364Z,5.57
2023-04-07T10:32:04.040Z,5.67
2023-04-07T10:39:08.066Z,5.70
2023-04-07T10:45:51.964Z,5.70
2023-04-07T10:52:34.230Z,5.65
2023-04-07T10:59:16.908Z,5.68
2023-04-07T11:06:05.218Z,5.79
2023-04-07T11:13:00.285Z,5.90
2023-04-07T11:19:54.826Z,6.17
2023-04-07T11:26:43.708Z,6.58
2023-04-07T11:33:32.300Z,6.90
2023-04-07T11:40:32.206Z,7.23
2023-04-07T11:47:14.400Z,7.69
2023-04-07T11:53:57.326Z,8.03
2023-04-07T12:00:57.614Z,8.05
2023-04-07T12:07:42.042Z,8.18
2023-04-07T12:14:26.361Z,8.41
2023-04-07T12:21:08.532Z,8.94
2023-04-07T12:27:50.748Z,9.00
2023-04-07T12:34:33.283Z,8.97
2023-04-07T12:41:15.660Z,8.76
2023-04-07T12:47:58.690Z,8.65
2023-04-07T12:54:42.958Z,8.73
2023-04-07T13:01:25.228Z,8.78
2023-04-07T13:08:08.189Z,8.54
2023-04-07T13:14:59.854Z,8.26
2023-04-07T13:21:46.669Z,8.10
2023-04-07T13:28:30.112Z,8.07
2023-04-07T13:35:12.257Z,7.94
2023-04-07T13:41:54.465Z,7.71
2023-04-07T13:48:36.799Z,7.54
2023-04-07T13:55:20.419Z,7.55
2023-04-07T14:02:02.745Z,7.49
2023-04-07T14:08:45.276Z,7.48
2023-04-07T14:15:27.982Z,7.52
2023-04-07T14:22:10.456Z,7.73
2023-04-07T14:28:52.795Z,7.73
2023-04-07T14:35:37.750Z,7.57
2023-04-07T14:42:20.841Z,7.48
2023-04-07T14:49:03.452Z,7.48
2023-04-07T14:55:45.818Z,7.46
2023-04-07T15:02:29.366Z,7.48
2023-04-07T15:09:11.748Z,7.44
2023-04-07T15:15:54.079Z,7.38
2023-04-07T15:22:36.635Z,7.44
2023-04-07T15:29:18.924Z,7.46
2023-04-07T15:36:01.436Z,7.57
2023-04-07T15:42:43.652Z,7.52
2023-04-07T15:49:26.287Z,7.42
2023-04-07T15:56:08.920Z,7.37
2023-04-07T16:02:51.304Z,7.38
2023-04-07T16:09:34.001Z,7.31
2023-04-07T16:16:16.432Z,7.22
2023-04-07T16:22:58.677Z,7.10
2023-04-07T16:29:41.145Z,6.98
2023-04-07T16:36:23.299Z,6.86
2023-04-07T16:43:05.489Z,6.68
2023-04-07T16:49:47.648Z,6.50
2023-04-07T16:56:29.962Z,6.35
2023-04-07T17:03:15.296Z,6.17
2023-04-07T17:09:58.020Z,6.03
2023-04-07T17:16:40.550Z,5.90
2023-04-07T17:23:22.737Z,5.77
2023-04-07T17:30:06.702Z,5.66
2023-04-07T17:36:49.546Z,5.57
2023-04-07T17:43:31.830Z,5.53
2023-04-07T17:50:14.871Z,5.53
2023-04-07T17:56:58.116Z,5.52
2023-04-07T18:03:40.522Z,5.52
2023-04-07T18:10:22.886Z,5.51
2023-04-07T18:17:05.331Z,5.50
2023-04-07T18:23:47.670Z,5.53
2023-04-07T18:30:30.191Z,5.55
2023-04-07T18:37:12.427Z,5.57
2023-04-07T18:43:55.204Z,5.63
2023-04-07T18:50:37.435Z,5.67
2023-04-07T18:57:19.722Z,5.74
2023-04-07T19:04:02.011Z,5.81
2023-04-07T19:10:44.349Z,5.87
2023-04-07T19:17:27.278Z,5.88
2023-04-07T19:24:09.540Z,5.95
2023-04-07T19:30:51.703Z,5.97
2023-04-07T19:37:34.326Z,5.99
2023-04-07T19:44:18.809Z,5.97
2023-04-07T19:51:01.048Z,5.98
2023-04-07T19:57:43.348Z,6.01
2023-04-07T20:04:26.018Z,6.01
2023-04-07T20:11:11.563Z,5.98
2023-04-07T20:17:54.168Z,5.94
2023-04-07T20:24:36.554Z,5.90
2023-04-07T20:31:19.387Z,5.84
2023-04-07T20:38:02.784Z,5.81
2023-04-07T20:44:49.093Z,5.78
2023-04-07T20:51:31.429Z,5.76
2023-04-07T20:58:13.931Z,5.71
2023-04-07T21:04:56.459Z,5.69
2023-04-07T21:11:38.782Z,5.64
2023-04-07T21:18:21.264Z,5.61
2023-04-07T21:25:07.064Z,5.57
2023-04-07T21:31:49.908Z,5.51
2023-04-07T21:38:32.111Z,5.49
2023-04-07T21:45:15.152Z,5.50
2023-04-07T21:51:58.150Z,5.53
2023-04-07T21:58:41.926Z,5.56
2023-04-07T22:05:24.063Z,5.57
2023-04-07T22:12:06.259Z,5.53
2023-04-07T22:18:48.791Z,5.49
2023-04-07T22:25:31.285Z,5.46
2023-04-07T22:32:13.778Z,5.43
2023-04-07T22:38:56.511Z,5.42
2023-04-07T22:45:38.714Z,5.38
2023-04-07T22:52:20.941Z,5.35
2023-04-07T22:59:05.874Z,5.35
2023-04-07T23:05:48.137Z,5.36
2023-04-07T23:12:30.460Z,5.40
2023-04-07T23:19:15.602Z,5.41
2023-04-07T23:25:57.919Z,5.42
2023-04-07T23:32:40.180Z,5.44
2023-04-07T23:39:22.414Z,5.45
2023-04-07T23:46:05.769Z,5.44
2023-04-07T23:52:48.089Z,5.43
2023-04-07T23:59:30.563Z,5.45
